sensor_id;sensor_type;location;lat;lon;timestamp;temperature;humidity
11991;DHT22;6055;52.522;13.446;2023-05-02T00:00:09;15.50;63.90
11991;DHT22;6055;52.522;13.446;2023-05-02T00:02:35;15.50;63.60
11991;DHT22;6055;52.522;13.446;2023-05-02T00:05:01;15.50;63.50
11991;DHT22;6055;52.522;13.446;2023-05-02T00:07:27;15.40;63.60
11991;DHT22;6055;52.522;13.446;2023-05-02T00:09:52;15.40;63.70
11991;DHT22;6055;52.522;13.446;2023-05-02T00:12:20;15.30;64.10
11991;DHT22;6055;52.522;13.446;2023-05-02T00:14:45;15.20;64.40
11991;DHT22;6055;52.522;13.446;2023-05-02T00:17:19;15.30;64.40
11991;DHT22;6055;52.522;13.446;2023-05-02T00:19:45;15.30;64.00
11991;DHT22;6055;52.522;13.446;2023-05-02T00:22:11;15.20;63.80
11991;DHT22;6055;52.522;13.446;2023-05-02T00:24:38;15.20;64.00
11991;DHT22;6055;52.522;13.446;2023-05-02T00:27:03;15.20;63.70
11991;DHT22;6055;52.522;13.446;2023-05-02T00:29:30;15.20;63.40
11991;DHT22;6055;52.522;13.446;2023-05-02T00:31:56;15.10;63.70
11991;DHT22;6055;52.522;13.446;2023-05-02T00:34:22;15.10;63.60
11991;DHT22;6055;52.522;13.446;2023-05-02T00:36:48;15.10;63.90
11991;DHT22;6055;52.522;13.446;2023-05-02T00:39:13;15.10;64.00
11991;DHT22;6055;52.522;13.446;2023-05-02T00:41:39;15.10;63.30
11991;DHT22;6055;52.522;13.446;2023-05-02T00:44:04;15.10;63.60
11991;DHT22;6055;52.522;13.446;2023-05-02T00:46:30;15.00;63.40
11991;DHT22;6055;52.522;13.446;2023-05-02T00:48:55;15.00;63.40
11991;DHT22;6055;52.522;13.446;2023-05-02T00:51:21;14.90;63.80
11991;DHT22;6055;52.522;13.446;2023-05-02T00:53:46;14.90;64.30
11991;DHT22;6055;52.522;13.446;2023-05-02T00:56:12;14.80;64.40
11991;DHT22;6055;52.522;13.446;2023-05-02T00:58:42;14.90;64.70
11991;DHT22;6055;52.522;13.446;2023-05-02T01:01:29;14.80;64.90
11991;DHT22;6055;52.522;13.446;2023-05-02T01:09:28;14.80;66.40
11991;DHT22;6055;52.522;13.446;2023-05-02T01:12:14;14.70;66.90
11991;DHT22;6055;52.522;13.446;2023-05-02T01:14:41;14.60;67.60
11991;DHT22;6055;52.522;13.446;2023-05-02T01:17:11;14.60;68.20
11991;DHT22;6055;52.522;13.446;2023-05-02T01:19:43;14.50;68.60
11991;DHT22;6055;52.522;13.446;2023-05-02T01:22:10;14.50;69.40
11991;DHT22;6055;52.522;13.446;2023-05-02T01:24:47;14.50;69.50
11991;DHT22;6055;52.522;13.446;2023-05-02T01:29:59;14.30;70.90
11991;DHT22;6055;52.522;13.446;2023-05-02T01:32:27;14.30;71.50
11991;DHT22;6055;52.522;13.446;2023-05-02T01:34:55;14.30;71.70
11991;DHT22;6055;52.522;13.446;2023-05-02T01:37:23;14.30;72.10
11991;DHT22;6055;52.522;13.446;2023-05-02T01:39:50;14.30;72.30
11991;DHT22;6055;52.522;13.446;2023-05-02T01:42:17;14.30;72.60
11991;DHT22;6055;52.522;13.446;2023-05-02T01:44:44;14.30;72.70
11991;DHT22;6055;52.522;13.446;2023-05-02T01:47:11;14.30;73.40
11991;DHT22;6055;52.522;13.446;2023-05-02T01:49:37;14.30;73.70
11991;DHT22;6055;52.522;13.446;2023-05-02T01:52:07;14.20;73.80
11991;DHT22;6055;52.522;13.446;2023-05-02T01:54:36;14.20;74.60
11991;DHT22;6055;52.522;13.446;2023-05-02T01:57:05;14.10;74.50
11991;DHT22;6055;52.522;13.446;2023-05-02T01:59:32;14.00;74.80
11991;DHT22;6055;52.522;13.446;2023-05-02T02:01:58;14.00;75.10
11991;DHT22;6055;52.522;13.446;2023-05-02T02:04:26;13.90;75.40
11991;DHT22;6055;52.522;13.446;2023-05-02T02:06:56;13.90;75.90
11991;DHT22;6055;52.522;13.446;2023-05-02T02:09:22;13.80;76.40
11991;DHT22;6055;52.522;13.446;2023-05-02T02:12:11;13.70;76.50
11991;DHT22;6055;52.522;13.446;2023-05-02T02:14:38;13.70;76.90
11991;DHT22;6055;52.522;13.446;2023-05-02T02:17:12;13.70;77.20
11991;DHT22;6055;52.522;13.446;2023-05-02T02:19:40;13.70;77.50
11991;DHT22;6055;52.522;13.446;2023-05-02T02:22:07;13.60;78.10
11991;DHT22;6055;52.522;13.446;2023-05-02T02:24:35;13.60;78.20
11991;DHT22;6055;52.522;13.446;2023-05-02T02:27:02;13.60;78.60
11991;DHT22;6055;52.522;13.446;2023-05-02T02:29:27;13.50;79.30
11991;DHT22;6055;52.522;13.446;2023-05-02T02:31:52;13.50;79.60
11991;DHT22;6055;52.522;13.446;2023-05-02T02:34:19;13.50;80.10
11991;DHT22;6055;52.522;13.446;2023-05-02T02:36:56;13.40;80.80
11991;DHT22;6055;52.522;13.446;2023-05-02T02:39:33;13.30;81.30
11991;DHT22;6055;52.522;13.446;2023-05-02T02:45:08;13.20;82.70
11991;DHT22;6055;52.522;13.446;2023-05-02T02:47:41;13.10;83.40
11991;DHT22;6055;52.522;13.446;2023-05-02T02:50:31;13.10;83.70
11991;DHT22;6055;52.522;13.446;2023-05-02T02:53:05;13.00;84.10
11991;DHT22;6055;52.522;13.446;2023-05-02T02:55:56;13.00;84.10
11991;DHT22;6055;52.522;13.446;2023-05-02T02:58:53;12.90;84.30
11991;DHT22;6055;52.522;13.446;2023-05-02T03:01:20;12.90;84.80
11991;DHT22;6055;52.522;13.446;2023-05-02T03:03:47;12.80;85.40
11991;DHT22;6055;52.522;13.446;2023-05-02T03:06:14;12.80;85.60
11991;DHT22;6055;52.522;13.446;2023-05-02T03:08:41;12.80;86.10
11991;DHT22;6055;52.522;13.446;2023-05-02T03:11:07;12.80;86.10
11991;DHT22;6055;52.522;13.446;2023-05-02T03:13:34;12.80;86.30
11991;DHT22;6055;52.522;13.446;2023-05-02T03:16:33;12.70;87.00
11991;DHT22;6055;52.522;13.446;2023-05-02T03:18:59;12.80;86.80
11991;DHT22;6055;52.522;13.446;2023-05-02T03:21:24;12.70;87.40
11991;DHT22;6055;52.522;13.446;2023-05-02T03:23:50;12.60;87.90
11991;DHT22;6055;52.522;13.446;2023-05-02T03:26:16;12.60;87.90
11991;DHT22;6055;52.522;13.446;2023-05-02T03:28:41;12.50;89.10
11991;DHT22;6055;52.522;13.446;2023-05-02T03:31:10;12.40;89.50
11991;DHT22;6055;52.522;13.446;2023-05-02T03:33:36;12.50;90.10
11991;DHT22;6055;52.522;13.446;2023-05-02T03:36:01;12.40;90.00
11991;DHT22;6055;52.522;13.446;2023-05-02T03:38:28;12.40;90.10
11991;DHT22;6055;52.522;13.446;2023-05-02T03:40:56;12.40;90.30
11991;DHT22;6055;52.522;13.446;2023-05-02T03:43:22;12.30;90.60
11991;DHT22;6055;52.522;13.446;2023-05-02T03:45:48;12.30;90.70
11991;DHT22;6055;52.522;13.446;2023-05-02T03:48:13;12.30;90.80
11991;DHT22;6055;52.522;13.446;2023-05-02T03:50:38;12.30;91.00
11991;DHT22;6055;52.522;13.446;2023-05-02T03:53:04;12.30;91.20
11991;DHT22;6055;52.522;13.446;2023-05-02T03:55:29;12.30;91.50
11991;DHT22;6055;52.522;13.446;2023-05-02T03:57:55;12.30;91.50
11991;DHT22;6055;52.522;13.446;2023-05-02T04:00:21;12.20;91.90
11991;DHT22;6055;52.522;13.446;2023-05-02T04:02:47;12.20;92.00
11991;DHT22;6055;52.522;13.446;2023-05-02T04:05:12;12.30;92.10
11991;DHT22;6055;52.522;13.446;2023-05-02T04:07:37;12.20;92.40
11991;DHT22;6055;52.522;13.446;2023-05-02T04:10:03;12.20;92.70
11991;DHT22;6055;52.522;13.446;2023-05-02T04:12:32;12.20;92.70
11991;DHT22;6055;52.522;13.446;2023-05-02T04:14:57;12.20;93.00
11991;DHT22;6055;52.522;13.446;2023-05-02T04:17:23;12.20;93.30
11991;DHT22;6055;52.522;13.446;2023-05-02T04:19:48;12.20;93.30
11991;DHT22;6055;52.522;13.446;2023-05-02T04:22:14;12.10;93.90
11991;DHT22;6055;52.522;13.446;2023-05-02T04:24:39;12.10;94.20
11991;DHT22;6055;52.522;13.446;2023-05-02T04:27:05;12.10;94.60
11991;DHT22;6055;52.522;13.446;2023-05-02T04:29:30;12.10;94.90
11991;DHT22;6055;52.522;13.446;2023-05-02T04:31:56;12.10;95.30
11991;DHT22;6055;52.522;13.446;2023-05-02T04:34:21;12.10;95.60
11991;DHT22;6055;52.522;13.446;2023-05-02T04:36:47;12.10;96.00
11991;DHT22;6055;52.522;13.446;2023-05-02T04:39:12;12.10;96.00
11991;DHT22;6055;52.522;13.446;2023-05-02T04:41:38;12.00;96.30
11991;DHT22;6055;52.522;13.446;2023-05-02T04:44:03;12.10;96.60
11991;DHT22;6055;52.522;13.446;2023-05-02T04:46:29;12.10;96.40
11991;DHT22;6055;52.522;13.446;2023-05-02T04:48:55;12.10;96.40
11991;DHT22;6055;52.522;13.446;2023-05-02T04:51:20;12.20;96.60
11991;DHT22;6055;52.522;13.446;2023-05-02T04:53:46;12.20;96.60
11991;DHT22;6055;52.522;13.446;2023-05-02T04:56:12;12.20;96.70
11991;DHT22;6055;52.522;13.446;2023-05-02T04:58:37;12.20;96.60
11991;DHT22;6055;52.522;13.446;2023-05-02T05:01:03;12.30;96.60
11991;DHT22;6055;52.522;13.446;2023-05-02T05:03:28;12.30;96.90
11991;DHT22;6055;52.522;13.446;2023-05-02T05:05:57;12.20;97.00
11991;DHT22;6055;52.522;13.446;2023-05-02T05:08:23;12.30;96.70
11991;DHT22;6055;52.522;13.446;2023-05-02T05:10:49;12.30;96.90
11991;DHT22;6055;52.522;13.446;2023-05-02T05:13:15;12.40;96.90
11991;DHT22;6055;52.522;13.446;2023-05-02T05:15:40;12.40;96.60
11991;DHT22;6055;52.522;13.446;2023-05-02T05:18:06;12.50;96.60
11991;DHT22;6055;52.522;13.446;2023-05-02T05:20:31;12.40;96.40
11991;DHT22;6055;52.522;13.446;2023-05-02T05:22:58;12.50;97.00
11991;DHT22;6055;52.522;13.446;2023-05-02T05:25:27;12.40;96.50
11991;DHT22;6055;52.522;13.446;2023-05-02T05:27:53;12.40;97.00
11991;DHT22;6055;52.522;13.446;2023-05-02T05:30:20;12.40;97.00
11991;DHT22;6055;52.522;13.446;2023-05-02T05:32:46;12.40;97.50
11991;DHT22;6055;52.522;13.446;2023-05-02T05:35:11;12.30;97.30
11991;DHT22;6055;52.522;13.446;2023-05-02T05:37:37;12.30;97.40
11991;DHT22;6055;52.522;13.446;2023-05-02T05:40:05;12.40;97.50
11991;DHT22;6055;52.522;13.446;2023-05-02T05:42:31;12.30;97.70
11991;DHT22;6055;52.522;13.446;2023-05-02T05:44:56;12.30;97.80
11991;DHT22;6055;52.522;13.446;2023-05-02T05:47:22;12.40;98.10
11991;DHT22;6055;52.522;13.446;2023-05-02T05:49:52;12.40;97.90
11991;DHT22;6055;52.522;13.446;2023-05-02T05:52:17;12.40;98.20
11991;DHT22;6055;52.522;13.446;2023-05-02T05:54:42;12.40;98.70
11991;DHT22;6055;52.522;13.446;2023-05-02T05:57:08;12.40;98.60
11991;DHT22;6055;52.522;13.446;2023-05-02T05:59:36;12.40;98.70
11991;DHT22;6055;52.522;13.446;2023-05-02T06:02:02;12.50;99.00
11991;DHT22;6055;52.522;13.446;2023-05-02T06:04:28;12.40;99.40
11991;DHT22;6055;52.522;13.446;2023-05-02T06:06:53;12.50;99.50
11991;DHT22;6055;52.522;13.446;2023-05-02T06:09:19;12.60;99.50
11991;DHT22;6055;52.522;13.446;2023-05-02T06:11:45;12.50;99.70
11991;DHT22;6055;52.522;13.446;2023-05-02T06:14:10;12.50;99.70
11991;DHT22;6055;52.522;13.446;2023-05-02T06:16:35;12.60;99.90
11991;DHT22;6055;52.522;13.446;2023-05-02T06:19:01;12.60;99.80
11991;DHT22;6055;52.522;13.446;2023-05-02T06:21:26;12.60;99.90
11991;DHT22;6055;52.522;13.446;2023-05-02T06:23:52;12.60;99.90
11991;DHT22;6055;52.522;13.446;2023-05-02T06:26:18;12.60;99.90
11991;DHT22;6055;52.522;13.446;2023-05-02T06:28:44;12.60;99.90
11991;DHT22;6055;52.522;13.446;2023-05-02T06:31:09;12.60;99.90
11991;DHT22;6055;52.522;13.446;2023-05-02T06:33:35;12.60;99.90
11991;DHT22;6055;52.522;13.446;2023-05-02T06:36:01;12.70;99.90
11991;DHT22;6055;52.522;13.446;2023-05-02T06:38:27;12.70;99.90
11991;DHT22;6055;52.522;13.446;2023-05-02T06:40:52;12.70;99.90
11991;DHT22;6055;52.522;13.446;2023-05-02T06:43:18;12.80;99.90
11991;DHT22;6055;52.522;13.446;2023-05-02T06:45:44;12.80;99.90
11991;DHT22;6055;52.522;13.446;2023-05-02T06:48:10;12.80;99.90
11991;DHT22;6055;52.522;13.446;2023-05-02T06:50:35;13.00;99.90
11991;DHT22;6055;52.522;13.446;2023-05-02T06:53:04;13.00;99.90
11991;DHT22;6055;52.522;13.446;2023-05-02T06:55:30;12.90;99.90
11991;DHT22;6055;52.522;13.446;2023-05-02T06:57:56;12.90;99.90
11991;DHT22;6055;52.522;13.446;2023-05-02T07:00:21;12.80;99.90
11991;DHT22;6055;52.522;13.446;2023-05-02T07:02:48;12.80;99.90
11991;DHT22;6055;52.522;13.446;2023-05-02T07:05:14;12.80;99.90
11991;DHT22;6055;52.522;13.446;2023-05-02T07:07:40;12.90;99.90
11991;DHT22;6055;52.522;13.446;2023-05-02T07:10:07;12.80;99.90
11991;DHT22;6055;52.522;13.446;2023-05-02T07:12:33;12.70;99.90
11991;DHT22;6055;52.522;13.446;2023-05-02T07:14:58;12.70;99.90
11991;DHT22;6055;52.522;13.446;2023-05-02T07:17:24;12.80;99.90
11991;DHT22;6055;52.522;13.446;2023-05-02T07:19:50;13.00;99.90
11991;DHT22;6055;52.522;13.446;2023-05-02T07:22:15;13.10;99.90
11991;DHT22;6055;52.522;13.446;2023-05-02T07:24:41;13.30;99.90
11991;DHT22;6055;52.522;13.446;2023-05-02T07:27:11;13.30;99.90
11991;DHT22;6055;52.522;13.446;2023-05-02T07:29:37;13.40;99.90
11991;DHT22;6055;52.522;13.446;2023-05-02T07:32:03;13.60;99.90
11991;DHT22;6055;52.522;13.446;2023-05-02T07:34:28;13.80;99.90
11991;DHT22;6055;52.522;13.446;2023-05-02T07:36:54;13.80;99.90
11991;DHT22;6055;52.522;13.446;2023-05-02T07:39:20;13.90;99.90
11991;DHT22;6055;52.522;13.446;2023-05-02T07:41:46;14.00;99.90
11991;DHT22;6055;52.522;13.446;2023-05-02T07:44:11;14.10;99.90
11991;DHT22;6055;52.522;13.446;2023-05-02T07:46:37;14.10;99.90
11991;DHT22;6055;52.522;13.446;2023-05-02T07:49:02;14.30;99.90
11991;DHT22;6055;52.522;13.446;2023-05-02T07:51:28;14.30;99.90
11991;DHT22;6055;52.522;13.446;2023-05-02T07:53:53;14.30;99.90
11991;DHT22;6055;52.522;13.446;2023-05-02T07:56:23;14.20;99.90
11991;DHT22;6055;52.522;13.446;2023-05-02T07:58:48;14.10;99.90
11991;DHT22;6055;52.522;13.446;2023-05-02T08:01:16;14.10;99.90
11991;DHT22;6055;52.522;13.446;2023-05-02T08:03:41;14.10;99.90
11991;DHT22;6055;52.522;13.446;2023-05-02T08:06:06;14.00;99.90
11991;DHT22;6055;52.522;13.446;2023-05-02T08:08:33;14.10;99.90
11991;DHT22;6055;52.522;13.446;2023-05-02T08:10:59;14.00;99.90
11991;DHT22;6055;52.522;13.446;2023-05-02T08:13:24;14.00;99.90
11991;DHT22;6055;52.522;13.446;2023-05-02T08:15:51;14.10;99.90
11991;DHT22;6055;52.522;13.446;2023-05-02T08:18:20;14.10;99.90
11991;DHT22;6055;52.522;13.446;2023-05-02T08:20:46;14.20;99.90
11991;DHT22;6055;52.522;13.446;2023-05-02T08:23:12;14.30;99.90
11991;DHT22;6055;52.522;13.446;2023-05-02T08:25:38;14.40;99.90
11991;DHT22;6055;52.522;13.446;2023-05-02T08:28:03;14.40;99.90
11991;DHT22;6055;52.522;13.446;2023-05-02T08:30:29;14.50;99.90
11991;DHT22;6055;52.522;13.446;2023-05-02T08:32:54;14.50;99.90
11991;DHT22;6055;52.522;13.446;2023-05-02T08:35:19;14.60;99.90
11991;DHT22;6055;52.522;13.446;2023-05-02T08:37:45;14.60;99.90
11991;DHT22;6055;52.522;13.446;2023-05-02T08:40:11;14.60;99.90
11991;DHT22;6055;52.522;13.446;2023-05-02T08:42:41;14.60;99.90
11991;DHT22;6055;52.522;13.446;2023-05-02T08:45:08;14.50;99.90
11991;DHT22;6055;52.522;13.446;2023-05-02T08:47:35;14.50;99.90
11991;DHT22;6055;52.522;13.446;2023-05-02T08:50:04;14.30;99.90
11991;DHT22;6055;52.522;13.446;2023-05-02T08:52:31;14.30;99.90
11991;DHT22;6055;52.522;13.446;2023-05-02T08:54:59;14.30;99.90
11991;DHT22;6055;52.522;13.446;2023-05-02T08:57:28;14.10;99.90
11991;DHT22;6055;52.522;13.446;2023-05-02T08:59:53;14.10;99.90
11991;DHT22;6055;52.522;13.446;2023-05-02T09:02:48;14.00;99.90
11991;DHT22;6055;52.522;13.446;2023-05-02T09:05:19;14.00;99.90
11991;DHT22;6055;52.522;13.446;2023-05-02T09:07:50;13.90;99.90
11991;DHT22;6055;52.522;13.446;2023-05-02T09:10:15;14.00;99.90
11991;DHT22;6055;52.522;13.446;2023-05-02T09:12:41;14.10;99.90
11991;DHT22;6055;52.522;13.446;2023-05-02T09:15:12;14.20;99.90
11991;DHT22;6055;52.522;13.446;2023-05-02T09:17:42;14.30;99.90
11991;DHT22;6055;52.522;13.446;2023-05-02T09:20:10;14.30;99.90
11991;DHT22;6055;52.522;13.446;2023-05-02T09:22:36;14.30;99.90
11991;DHT22;6055;52.522;13.446;2023-05-02T09:25:02;14.40;99.90
11991;DHT22;6055;52.522;13.446;2023-05-02T09:27:28;14.50;99.90
11991;DHT22;6055;52.522;13.446;2023-05-02T09:30:18;14.70;99.90
11991;DHT22;6055;52.522;13.446;2023-05-02T09:32:44;15.00;99.90
11991;DHT22;6055;52.522;13.446;2023-05-02T09:35:10;14.90;99.90
11991;DHT22;6055;52.522;13.446;2023-05-02T09:37:36;14.90;99.90
11991;DHT22;6055;52.522;13.446;2023-05-02T09:40:05;14.80;99.90
11991;DHT22;6055;52.522;13.446;2023-05-02T09:42:31;14.60;99.90
11991;DHT22;6055;52.522;13.446;2023-05-02T09:45:00;14.30;99.90
11991;DHT22;6055;52.522;13.446;2023-05-02T09:47:26;14.20;99.90
11991;DHT22;6055;52.522;13.446;2023-05-02T09:49:51;14.10;99.90
11991;DHT22;6055;52.522;13.446;2023-05-02T09:52:18;14.10;99.90
11991;DHT22;6055;52.522;13.446;2023-05-02T09:54:46;14.10;99.90
11991;DHT22;6055;52.522;13.446;2023-05-02T09:57:12;14.20;99.90
11991;DHT22;6055;52.522;13.446;2023-05-02T09:59:38;14.10;99.90
11991;DHT22;6055;52.522;13.446;2023-05-02T10:02:05;14.20;99.90
11991;DHT22;6055;52.522;13.446;2023-05-02T10:04:32;14.30;99.90
11991;DHT22;6055;52.522;13.446;2023-05-02T10:06:58;14.40;99.90
11991;DHT22;6055;52.522;13.446;2023-05-02T10:09:25;14.50;99.90
11991;DHT22;6055;52.522;13.446;2023-05-02T10:11:53;14.70;99.90
11991;DHT22;6055;52.522;13.446;2023-05-02T10:14:22;14.90;99.90
11991;DHT22;6055;52.522;13.446;2023-05-02T10:19:23;14.80;99.90
11991;DHT22;6055;52.522;13.446;2023-05-02T10:21:51;14.80;99.90
11991;DHT22;6055;52.522;13.446;2023-05-02T10:24:17;14.70;99.90
11991;DHT22;6055;52.522;13.446;2023-05-02T10:26:43;14.40;99.90
11991;DHT22;6055;52.522;13.446;2023-05-02T10:29:10;14.10;99.90
11991;DHT22;6055;52.522;13.446;2023-05-02T10:31:36;13.90;99.90
11991;DHT22;6055;52.522;13.446;2023-05-02T10:34:04;13.80;99.90
11991;DHT22;6055;52.522;13.446;2023-05-02T10:36:31;13.70;99.90
11991;DHT22;6055;52.522;13.446;2023-05-02T10:38:58;14.00;99.90
11991;DHT22;6055;52.522;13.446;2023-05-02T10:41:26;14.20;99.90
11991;DHT22;6055;52.522;13.446;2023-05-02T10:43:53;14.30;99.90
11991;DHT22;6055;52.522;13.446;2023-05-02T10:46:36;14.20;99.90
11991;DHT22;6055;52.522;13.446;2023-05-02T10:49:06;14.30;99.90
11991;DHT22;6055;52.522;13.446;2023-05-02T10:51:33;14.40;99.90
11991;DHT22;6055;52.522;13.446;2023-05-02T10:54:22;14.40;99.90
11991;DHT22;6055;52.522;13.446;2023-05-02T11:01:56;13.60;99.90
11991;DHT22;6055;52.522;13.446;2023-05-02T11:04:23;13.20;99.90
11991;DHT22;6055;52.522;13.446;2023-05-02T11:09:30;12.90;99.90
11991;DHT22;6055;52.522;13.446;2023-05-02T11:11:57;12.70;99.90
11991;DHT22;6055;52.522;13.446;2023-05-02T11:17:05;12.90;99.90
11991;DHT22;6055;52.522;13.446;2023-05-02T11:24:44;12.50;99.90
11991;DHT22;6055;52.522;13.446;2023-05-02T11:30:03;12.70;99.90
11991;DHT22;6055;52.522;13.446;2023-05-02T11:35:22;13.30;99.90
11991;DHT22;6055;52.522;13.446;2023-05-02T11:37:59;13.70;99.90
11991;DHT22;6055;52.522;13.446;2023-05-02T11:40:27;13.60;99.90
11991;DHT22;6055;52.522;13.446;2023-05-02T11:42:53;13.50;99.90
11991;DHT22;6055;52.522;13.446;2023-05-02T11:45:19;13.50;99.90
11991;DHT22;6055;52.522;13.446;2023-05-02T11:47:46;13.40;99.90
11991;DHT22;6055;52.522;13.446;2023-05-02T11:50:13;13.40;99.90
11991;DHT22;6055;52.522;13.446;2023-05-02T11:52:40;13.40;99.90
11991;DHT22;6055;52.522;13.446;2023-05-02T11:55:09;13.50;99.90
11991;DHT22;6055;52.522;13.446;2023-05-02T11:57:36;13.50;99.60
11991;DHT22;6055;52.522;13.446;2023-05-02T12:00:02;13.30;99.60
11991;DHT22;6055;52.522;13.446;2023-05-02T12:02:39;13.40;99.90
11991;DHT22;6055;52.522;13.446;2023-05-02T12:05:06;13.60;99.40
11991;DHT22;6055;52.522;13.446;2023-05-02T12:10:02;13.40;98.70
11991;DHT22;6055;52.522;13.446;2023-05-02T12:12:28;13.30;99.00
11991;DHT22;6055;52.522;13.446;2023-05-02T12:14:54;13.20;99.20
11991;DHT22;6055;52.522;13.446;2023-05-02T12:17:20;13.20;99.40
11991;DHT22;6055;52.522;13.446;2023-05-02T12:19:46;13.20;99.10
11991;DHT22;6055;52.522;13.446;2023-05-02T12:22:13;13.20;99.00
11991;DHT22;6055;52.522;13.446;2023-05-02T12:24:39;13.20;99.20
11991;DHT22;6055;52.522;13.446;2023-05-02T12:27:12;13.30;99.00
11991;DHT22;6055;52.522;13.446;2023-05-02T12:29:42;13.30;99.10
11991;DHT22;6055;52.522;13.446;2023-05-02T12:32:09;13.20;98.60
11991;DHT22;6055;52.522;13.446;2023-05-02T12:34:35;13.30;98.50
11991;DHT22;6055;52.522;13.446;2023-05-02T12:37:02;13.50;98.30
11991;DHT22;6055;52.522;13.446;2023-05-02T12:39:38;13.40;98.20
11991;DHT22;6055;52.522;13.446;2023-05-02T12:42:14;13.50;97.60
11991;DHT22;6055;52.522;13.446;2023-05-02T12:44:42;13.70;97.60
11991;DHT22;6055;52.522;13.446;2023-05-02T12:47:09;14.00;97.10
11991;DHT22;6055;52.522;13.446;2023-05-02T12:49:52;14.30;96.60
11991;DHT22;6055;52.522;13.446;2023-05-02T12:52:19;14.80;95.90
11991;DHT22;6055;52.522;13.446;2023-05-02T12:54:45;15.10;95.60
11991;DHT22;6055;52.522;13.446;2023-05-02T12:57:24;14.90;95.00
11991;DHT22;6055;52.522;13.446;2023-05-02T12:59:53;14.60;95.40
11991;DHT22;6055;52.522;13.446;2023-05-02T13:02:19;14.50;95.50
11991;DHT22;6055;52.522;13.446;2023-05-02T13:04:45;15.30;94.60
11991;DHT22;6055;52.522;13.446;2023-05-02T13:07:11;15.90;92.70
11991;DHT22;6055;52.522;13.446;2023-05-02T13:09:36;15.70;92.80
11991;DHT22;6055;52.522;13.446;2023-05-02T13:12:02;16.10;92.30
11991;DHT22;6055;52.522;13.446;2023-05-02T13:14:28;16.60;91.80
11991;DHT22;6055;52.522;13.446;2023-05-02T13:16:54;17.10;90.90
11991;DHT22;6055;52.522;13.446;2023-05-02T13:19:22;16.90;90.60
11991;DHT22;6055;52.522;13.446;2023-05-02T13:21:48;16.90;90.90
11991;DHT22;6055;52.522;13.446;2023-05-02T13:24:13;17.10;90.50
11991;DHT22;6055;52.522;13.446;2023-05-02T13:26:41;16.50;90.30
11991;DHT22;6055;52.522;13.446;2023-05-02T13:29:07;16.00;90.70
11991;DHT22;6055;52.522;13.446;2023-05-02T13:31:36;15.20;91.40
11991;DHT22;6055;52.522;13.446;2023-05-02T13:34:02;14.90;91.70
11991;DHT22;6055;52.522;13.446;2023-05-02T13:36:28;14.80;92.00
11991;DHT22;6055;52.522;13.446;2023-05-02T13:38:53;14.90;91.70
11991;DHT22;6055;52.522;13.446;2023-05-02T13:41:19;14.40;91.80
11991;DHT22;6055;52.522;13.446;2023-05-02T13:43:45;14.30;92.30
11991;DHT22;6055;52.522;13.446;2023-05-02T13:46:11;14.10;92.40
11991;DHT22;6055;52.522;13.446;2023-05-02T13:48:36;14.10;92.60
11991;DHT22;6055;52.522;13.446;2023-05-02T13:51:02;14.20;92.50
11991;DHT22;6055;52.522;13.446;2023-05-02T13:53:27;14.20;92.30
11991;DHT22;6055;52.522;13.446;2023-05-02T13:55:53;14.30;92.50
11991;DHT22;6055;52.522;13.446;2023-05-02T13:58:18;14.30;91.80
11991;DHT22;6055;52.522;13.446;2023-05-02T14:00:44;14.30;92.20
11991;DHT22;6055;52.522;13.446;2023-05-02T14:03:09;14.20;92.30
11991;DHT22;6055;52.522;13.446;2023-05-02T14:05:35;13.80;92.30
11991;DHT22;6055;52.522;13.446;2023-05-02T14:08:01;14.40;92.50
11991;DHT22;6055;52.522;13.446;2023-05-02T14:10:26;14.70;92.00
11991;DHT22;6055;52.522;13.446;2023-05-02T14:12:51;14.80;91.10
11991;DHT22;6055;52.522;13.446;2023-05-02T14:15:17;15.10;90.50
11991;DHT22;6055;52.522;13.446;2023-05-02T14:17:43;15.30;90.40
11991;DHT22;6055;52.522;13.446;2023-05-02T14:20:08;15.60;90.00
11991;DHT22;6055;52.522;13.446;2023-05-02T14:22:35;15.50;89.40
11991;DHT22;6055;52.522;13.446;2023-05-02T14:25:00;14.90;90.10
11991;DHT22;6055;52.522;13.446;2023-05-02T14:27:26;14.50;90.60
11991;DHT22;6055;52.522;13.446;2023-05-02T14:29:51;14.30;91.50
11991;DHT22;6055;52.522;13.446;2023-05-02T14:32:17;14.00;91.00
11991;DHT22;6055;52.522;13.446;2023-05-02T14:34:42;13.90;91.50
11991;DHT22;6055;52.522;13.446;2023-05-02T14:37:08;13.70;91.70
11991;DHT22;6055;52.522;13.446;2023-05-02T14:39:34;13.50;91.50
11991;DHT22;6055;52.522;13.446;2023-05-02T14:42:00;13.20;92.00
11991;DHT22;6055;52.522;13.446;2023-05-02T14:44:28;13.20;92.30
11991;DHT22;6055;52.522;13.446;2023-05-02T14:46:54;13.00;92.00
11991;DHT22;6055;52.522;13.446;2023-05-02T14:49:20;12.80;92.20
11991;DHT22;6055;52.522;13.446;2023-05-02T14:51:46;12.50;92.50
11991;DHT22;6055;52.522;13.446;2023-05-02T14:54:13;12.60;92.70
11991;DHT22;6055;52.522;13.446;2023-05-02T14:56:41;12.70;92.60
11991;DHT22;6055;52.522;13.446;2023-05-02T14:59:06;12.60;92.70
11991;DHT22;6055;52.522;13.446;2023-05-02T15:01:32;12.60;92.30
11991;DHT22;6055;52.522;13.446;2023-05-02T15:03:57;12.50;92.60
11991;DHT22;6055;52.522;13.446;2023-05-02T15:06:23;12.30;92.60
11991;DHT22;6055;52.522;13.446;2023-05-02T15:08:48;12.20;93.00
11991;DHT22;6055;52.522;13.446;2023-05-02T15:11:14;12.20;93.00
11991;DHT22;6055;52.522;13.446;2023-05-02T15:13:40;12.20;92.70
11991;DHT22;6055;52.522;13.446;2023-05-02T15:16:06;12.20;92.70
11991;DHT22;6055;52.522;13.446;2023-05-02T15:18:34;12.30;92.90
11991;DHT22;6055;52.522;13.446;2023-05-02T15:20:59;12.30;92.90
11991;DHT22;6055;52.522;13.446;2023-05-02T15:23:25;12.30;93.20
11991;DHT22;6055;52.522;13.446;2023-05-02T15:25:51;12.40;93.20
11991;DHT22;6055;52.522;13.446;2023-05-02T15:28:16;12.50;92.70
11991;DHT22;6055;52.522;13.446;2023-05-02T15:30:42;12.50;92.40
11991;DHT22;6055;52.522;13.446;2023-05-02T15:33:07;12.60;91.90
11991;DHT22;6055;52.522;13.446;2023-05-02T15:35:33;12.50;91.60
11991;DHT22;6055;52.522;13.446;2023-05-02T15:37:58;12.60;91.50
11991;DHT22;6055;52.522;13.446;2023-05-02T15:40:24;12.60;91.30
11991;DHT22;6055;52.522;13.446;2023-05-02T15:42:51;12.70;91.10
11991;DHT22;6055;52.522;13.446;2023-05-02T15:45:17;12.70;91.00
11991;DHT22;6055;52.522;13.446;2023-05-02T15:47:42;12.50;90.60
11991;DHT22;6055;52.522;13.446;2023-05-02T15:50:08;12.40;90.90
11991;DHT22;6055;52.522;13.446;2023-05-02T15:52:34;12.60;91.10
11991;DHT22;6055;52.522;13.446;2023-05-02T15:55:00;12.90;90.50
11991;DHT22;6055;52.522;13.446;2023-05-02T15:57:26;13.40;90.00
11991;DHT22;6055;52.522;13.446;2023-05-02T15:59:51;13.80;88.70
11991;DHT22;6055;52.522;13.446;2023-05-02T16:02:17;13.90;88.10
11991;DHT22;6055;52.522;13.446;2023-05-02T16:04:43;14.20;88.40
11991;DHT22;6055;52.522;13.446;2023-05-02T16:07:09;14.20;87.50